Time;durP1;ratioP1;P1;durP2;ratioP2;P2;SDS_P1;SDS_P2;PMS_P1;PMS_P2;Temp;Humidity;BMP_temperature;BMP_pressure;BME280_temperature;BME280_humidity;BME280_pressure;Samples;Min_cycle;Max_cycle;Signal;HPM_P1;HPM_P2
2021/08/28 00:01:13;;;;;;;8.33;5.00;;;15.10;99.90;;;;;;5071950;28;20857;-63
2021/08/28 00:03:38;;;;;;;9.37;5.00;;;15.10;99.90;;;;;;5070798;28;20380;-63
2021/08/28 00:06:04;;;;;;;10.33;5.30;;;15.00;99.90;;;;;;5071868;28;20380;-63
2021/08/28 00:08:29;;;;;;;8.43;5.00;;;15.00;99.90;;;;;;5071425;28;20387;-62
2021/08/28 00:10:55;;;;;;;10.33;4.90;;;15.00;99.90;;;;;;5069762;28;20901;-63
2021/08/28 00:13:21;;;;;;;9.63;5.13;;;15.00;99.90;;;;;;5071368;28;20388;-63
2021/08/28 00:15:46;;;;;;;10.60;5.20;;;15.00;99.90;;;;;;5068967;28;20435;-63
2021/08/28 00:18:12;;;;;;;10.70;5.40;;;15.00;99.90;;;;;;5071685;28;20769;-62
2021/08/28 00:20:38;;;;;;;9.60;5.07;;;14.90;99.90;;;;;;5071096;28;20418;-62
2021/08/28 00:23:05;;;;;;;9.90;5.22;;;14.90;99.90;;;;;;5071282;28;20456;-63
2021/08/28 00:25:31;;;;;;;7.30;4.63;;;14.80;99.90;;;;;;5070102;28;20750;-61
2021/08/28 00:27:57;;;;;;;7.93;4.77;;;14.70;99.90;;;;;;5070887;28;20383;-62
2021/08/28 00:30:23;;;;;;;8.77;5.43;;;14.70;99.90;;;;;;5071452;28;20391;-63
2021/08/28 00:32:48;;;;;;;7.50;4.47;;;14.60;99.90;;;;;;5070413;28;20441;-63
2021/08/28 00:35:14;;;;;;;9.18;5.10;;;14.60;99.90;;;;;;5071160;28;20831;-63
2021/08/28 00:37:40;;;;;;;10.23;4.90;;;14.70;99.90;;;;;;5069986;28;20448;-63
2021/08/28 00:40:07;;;;;;;7.47;4.88;;;14.70;99.90;;;;;;5070762;28;20388;-63
2021/08/28 00:42:43;;;;;;;8.63;4.73;;;14.80;99.90;;;;;;5070376;28;20412;-60
2021/08/28 00:45:11;;;;;;;12.07;4.80;;;14.80;99.90;;;;;;5071019;28;20388;-63
2021/08/28 00:47:36;;;;;;;8.05;4.55;;;14.80;99.90;;;;;;5070336;28;20884;-63
2021/08/28 00:50:03;;;;;;;7.87;4.57;;;14.70;99.90;;;;;;5070873;28;20388;-64
2021/08/28 00:52:28;;;;;;;7.75;4.60;;;14.80;99.90;;;;;;5070934;28;20407;-63
2021/08/28 00:54:54;;;;;;;9.40;4.77;;;14.70;99.90;;;;;;5070180;28;20922;-62
2021/08/28 00:57:21;;;;;;;8.23;3.90;;;14.80;99.90;;;;;;5070635;28;20434;-63
2021/08/28 00:59:47;;;;;;;6.80;3.60;;;14.70;99.90;;;;;;5070003;28;20889;-63
2021/08/28 01:02:13;;;;;;;7.40;4.38;;;14.70;99.90;;;;;;5070465;28;20380;-60
2021/08/28 01:05:03;;;;;;;8.00;4.28;;;14.70;99.90;;;;;;5069832;28;20451;-63
2021/08/28 01:07:56;;;;;;;8.23;4.20;;;14.60;99.90;;;;;;5070681;28;20394;-65
2021/08/28 01:10:26;;;;;;;9.50;4.30;;;14.70;99.90;;;;;;5066482;28;20395;-63
2021/08/28 01:12:57;;;;;;;9.07;4.40;;;14.70;99.90;;;;;;5070084;28;20499;-63
2021/08/28 01:15:24;;;;;;;7.82;4.20;;;14.70;99.90;;;;;;5070367;28;20376;-63
2021/08/28 01:17:51;;;;;;;8.02;4.20;;;14.70;99.90;;;;;;5069656;28;20947;-63
2021/08/28 01:20:29;;;;;;;7.73;4.10;;;14.80;99.90;;;;;;5070437;28;20437;-63
2021/08/28 01:22:56;;;;;;;7.30;4.43;;;14.80;99.90;;;;;;5069594;28;20505;-63
2021/08/28 01:25:22;;;;;;;8.68;4.38;;;14.90;99.90;;;;;;5070488;28;21229;-64
2021/08/28 01:27:55;;;;;;;9.10;4.40;;;14.80;99.90;;;;;;5069609;28;20388;-62
2021/08/28 01:30:21;;;;;;;8.88;4.45;;;14.90;99.90;;;;;;5069121;28;20384;-63
2021/08/28 01:32:47;;;;;;;7.38;4.38;;;14.90;99.90;;;;;;5069106;28;20379;-63
2021/08/28 01:35:14;;;;;;;8.80;4.40;;;15.00;99.90;;;;;;5068839;28;20441;-63
2021/08/28 01:37:42;;;;;;;9.10;4.55;;;15.00;99.90;;;;;;5069210;28;20420;-63
2021/08/28 01:40:11;;;;;;;8.20;4.43;;;15.00;99.90;;;;;;5069897;28;20467;-63
2021/08/28 01:42:38;;;;;;;9.18;4.90;;;15.10;99.90;;;;;;5069361;28;20388;-59
2021/08/28 01:45:07;;;;;;;8.65;5.20;;;15.00;99.90;;;;;;5070018;28;20442;-63
2021/08/28 01:47:33;;;;;;;7.82;4.82;;;15.00;99.90;;;;;;5070010;28;20490;-59
2021/08/28 01:50:00;;;;;;;8.35;5.18;;;14.90;99.90;;;;;;5069178;28;20394;-63
2021/08/28 01:52:26;;;;;;;9.90;5.00;;;14.90;99.90;;;;;;5070017;28;20483;-64
2021/08/28 01:54:53;;;;;;;11.20;5.70;;;14.90;99.90;;;;;;5069117;28;20466;-63
2021/08/28 01:57:19;;;;;;;12.18;5.43;;;14.90;99.90;;;;;;5069752;28;20526;-63
2021/08/28 01:59:45;;;;;;;10.48;5.63;;;14.80;99.90;;;;;;5069088;28;20375;-64
2021/08/28 02:02:11;;;;;;;10.48;6.00;;;14.90;99.90;;;;;;5069653;28;20388;-63
2021/08/28 02:04:38;;;;;;;10.50;5.50;;;14.90;99.90;;;;;;5068805;28;20454;-60
2021/08/28 02:07:29;;;;;;;10.10;6.18;;;14.80;99.90;;;;;;5069884;28;20425;-63
2021/08/28 02:10:10;;;;;;;11.13;6.25;;;14.70;99.90;;;;;;5068659;28;20639;-63
2021/08/28 02:12:45;;;;;;;11.27;6.30;;;14.70;99.90;;;;;;5069160;28;20402;-59
2021/08/28 02:15:31;;;;;;;10.30;6.57;;;14.70;99.90;;;;;;5068435;28;20445;-63
2021/08/28 02:18:05;;;;;;;11.13;6.78;;;14.70;99.90;;;;;;5069125;28;20423;-63
2021/08/28 02:20:38;;;;;;;11.35;5.90;;;14.70;99.90;;;;;;5069862;28;20383;-62
2021/08/28 02:23:09;;;;;;;10.95;6.35;;;14.60;99.90;;;;;;5069636;28;20434;-63
2021/08/28 02:25:38;;;;;;;12.02;6.88;;;14.60;99.90;;;;;;5068840;28;20854;-60
2021/08/28 02:28:06;;;;;;;12.95;6.90;;;14.60;99.90;;;;;;5069828;28;20424;-63
2021/08/28 02:30:33;;;;;;;11.83;6.40;;;14.70;99.90;;;;;;5069550;28;20379;-63
2021/08/28 02:33:02;;;;;;;12.18;7.10;;;14.60;99.90;;;;;;5068729;28;20474;-63
2021/08/28 02:35:30;;;;;;;10.85;7.40;;;14.60;99.90;;;;;;5069346;28;20382;-60
2021/08/28 02:37:57;;;;;;;13.43;8.20;;;14.60;99.90;;;;;;5068592;28;21033;-62
2021/08/28 02:40:24;;;;;;;10.98;7.20;;;14.60;99.90;;;;;;5069370;28;20420;-64
2021/08/28 02:42:50;;;;;;;12.77;7.40;;;14.60;99.90;;;;;;5068674;28;20402;-63
2021/08/28 02:45:19;;;;;;;13.02;8.10;;;14.50;99.90;;;;;;5069537;28;20384;-63
2021/08/28 02:47:46;;;;;;;13.35;8.25;;;14.50;99.90;;;;;;5068245;28;20402;-62
2021/08/28 02:50:16;;;;;;;11.45;8.02;;;14.50;99.90;;;;;;5069387;28;20395;-63
2021/08/28 02:52:48;;;;;;;13.73;8.73;;;14.60;99.90;;;;;;5068617;28;20391;-62
2021/08/28 02:55:15;;;;;;;13.73;9.05;;;14.50;99.90;;;;;;5067980;28;20391;-63
2021/08/28 02:57:47;;;;;;;15.93;8.20;;;14.50;99.90;;;;;;5068490;28;20458;-62
2021/08/28 03:00:13;;;;;;;14.30;8.03;;;14.50;99.90;;;;;;5067897;28;20375;-62
2021/08/28 03:02:40;;;;;;;14.55;8.68;;;14.50;99.90;;;;;;5067450;28;20715;-62
2021/08/28 03:05:10;;;;;;;14.57;8.60;;;14.60;99.90;;;;;;5068751;28;20375;-63
2021/08/28 03:07:36;;;;;;;19.40;9.60;;;14.60;99.90;;;;;;5068567;28;20415;-60
2021/08/28 03:10:04;;;;;;;15.57;9.05;;;14.60;99.90;;;;;;5068898;28;20382;-63
2021/08/28 03:12:29;;;;;;;15.23;9.00;;;14.60;99.90;;;;;;5068818;28;20678;-63
2021/08/28 03:14:55;;;;;;;16.15;8.80;;;14.70;99.90;;;;;;5068335;28;20364;-63
2021/08/28 03:17:22;;;;;;;15.53;10.00;;;14.70;99.90;;;;;;5072142;28;20441;-63
2021/08/28 03:19:49;;;;;;;14.40;9.30;;;14.70;99.90;;;;;;5070386;28;20402;-63
2021/08/28 03:22:20;;;;;;;16.20;10.53;;;14.70;99.90;;;;;;5071380;28;20440;-63
2021/08/28 03:24:48;;;;;;;16.63;9.63;;;14.70;99.90;;;;;;5071840;28;20399;-63
2021/08/28 03:27:15;;;;;;;17.35;10.50;;;14.70;99.90;;;;;;5072565;28;20420;-63
2021/08/28 03:29:41;;;;;;;19.40;10.90;;;14.70;99.90;;;;;;5072287;28;20560;-63
2021/08/28 03:32:07;;;;;;;19.17;10.90;;;14.70;99.90;;;;;;5072618;28;20399;-63
2021/08/28 03:34:34;;;;;;;15.10;9.50;;;14.80;99.90;;;;;;5070932;28;20391;-63
2021/08/28 03:37:01;;;;;;;18.40;10.40;;;14.70;99.90;;;;;;5070537;28;20486;-63
2021/08/28 03:39:27;;;;;;;23.05;10.48;;;14.60;99.90;;;;;;5072952;28;20406;-64
2021/08/28 03:41:53;;;;;;;16.98;10.48;;;14.60;99.90;;;;;;5071650;28;20434;-63
2021/08/28 03:44:19;;;;;;;22.50;12.80;;;14.50;99.90;;;;;;5072505;28;20741;-62
2021/08/28 03:46:46;;;;;;;20.50;12.50;;;14.50;99.90;;;;;;5071871;28;20419;-63
2021/08/28 03:49:13;;;;;;;20.55;12.18;;;14.50;99.90;;;;;;5072354;28;20872;-63
2021/08/28 03:51:38;;;;;;;23.63;12.63;;;14.50;99.90;;;;;;5071409;28;20382;-60
2021/08/28 03:54:04;;;;;;;20.98;13.40;;;14.60;99.90;;;;;;5072087;28;20384;-63
2021/08/28 03:56:31;;;;;;;21.83;12.83;;;14.60;99.90;;;;;;5071918;28;20877;-63
2021/08/28 03:58:57;;;;;;;19.23;11.63;;;14.60;99.90;;;;;;5071292;28;20411;-63
2021/08/28 04:01:23;;;;;;;20.27;12.13;;;14.60;99.90;;;;;;5070909;28;20525;-63
2021/08/28 04:03:48;;;;;;;22.33;12.88;;;14.60;99.90;;;;;;5071310;28;20392;-63
2021/08/28 04:06:14;;;;;;;21.70;12.67;;;14.50;99.90;;;;;;5071664;28;20376;-63
2021/08/28 04:08:40;;;;;;;24.55;13.82;;;14.50;99.90;;;;;;5071439;28;20388;-61
2021/08/28 04:11:06;;;;;;;21.60;12.13;;;14.40;99.90;;;;;;5072061;28;20384;-63
2021/08/28 04:13:32;;;;;;;23.95;13.63;;;14.40;99.90;;;;;;5071698;28;20383;-63
2021/08/28 04:15:57;;;;;;;22.83;13.47;;;14.50;99.90;;;;;;5070901;28;20613;-63
2021/08/28 04:18:23;;;;;;;24.02;12.80;;;14.50;99.90;;;;;;5071276;28;20529;-63
2021/08/28 04:20:49;;;;;;;21.40;12.37;;;14.50;99.90;;;;;;5070554;28;20380;-63
2021/08/28 04:23:14;;;;;;;25.60;12.73;;;14.60;99.90;;;;;;5070436;28;20395;-63
2021/08/28 04:25:40;;;;;;;22.05;13.70;;;14.50;99.90;;;;;;5071075;28;20628;-62
2021/08/28 04:28:06;;;;;;;21.23;12.90;;;14.50;99.90;;;;;;5070996;28;20445;-63
2021/08/28 04:30:32;;;;;;;21.67;13.00;;;14.50;99.90;;;;;;5071699;28;20429;-63
2021/08/28 04:32:58;;;;;;;21.33;12.68;;;14.50;99.90;;;;;;5071021;28;20834;-65
2021/08/28 04:35:23;;;;;;;21.65;13.43;;;14.50;99.90;;;;;;5071715;28;20407;-63
2021/08/28 04:37:49;;;;;;;22.40;13.43;;;14.50;99.90;;;;;;5070653;28;20699;-63
2021/08/28 04:40:15;;;;;;;22.85;12.40;;;14.60;99.90;;;;;;5070843;28;20458;-63
2021/08/28 04:42:41;;;;;;;23.00;13.40;;;14.60;99.90;;;;;;5069131;28;20407;-63
2021/08/28 04:45:07;;;;;;;23.35;14.30;;;14.60;99.90;;;;;;5070978;28;20383;-64
2021/08/28 04:47:33;;;;;;;23.38;13.60;;;14.60;99.90;;;;;;5070727;28;20471;-63
2021/08/28 04:49:59;;;;;;;25.10;13.93;;;14.60;99.90;;;;;;5070085;28;20490;-63
2021/08/28 04:52:24;;;;;;;24.08;13.77;;;14.60;99.90;;;;;;5070938;28;20380;-63
2021/08/28 04:54:50;;;;;;;24.27;14.70;;;14.50;99.90;;;;;;5069862;28;20391;-63
2021/08/28 04:57:16;;;;;;;23.13;13.82;;;14.40;99.90;;;;;;5070850;28;20976;-63
2021/08/28 04:59:42;;;;;;;25.35;14.20;;;14.50;99.90;;;;;;5069976;28;20383;-63
2021/08/28 05:02:07;;;;;;;25.37;14.27;;;14.50;99.90;;;;;;5070843;28;20418;-63
2021/08/28 05:04:33;;;;;;;22.17;13.75;;;14.50;99.90;;;;;;5070659;28;20387;-62
2021/08/28 05:06:59;;;;;;;23.40;13.73;;;14.50;99.90;;;;;;5069802;28;20550;-63
2021/08/28 05:09:25;;;;;;;23.58;13.95;;;14.40;99.90;;;;;;5070554;28;20384;-64
2021/08/28 05:11:50;;;;;;;24.43;13.77;;;14.40;99.90;;;;;;5070287;28;20395;-63
2021/08/28 05:14:16;;;;;;;23.52;14.07;;;14.40;99.90;;;;;;5070405;28;20880;-63
2021/08/28 05:16:42;;;;;;;28.10;14.70;;;14.40;99.90;;;;;;5069120;28;20419;-63
2021/08/28 05:19:07;;;;;;;21.87;13.53;;;14.50;99.90;;;;;;5070291;28;20414;-64
2021/08/28 05:21:33;;;;;;;23.25;13.95;;;14.50;99.90;;;;;;5065774;28;20399;-63
2021/08/28 05:23:59;;;;;;;25.13;14.27;;;14.40;99.90;;;;;;5056786;28;20701;-63
2021/08/28 05:26:25;;;;;;;24.83;14.38;;;14.50;99.90;;;;;;5067950;28;20742;-63
2021/08/28 05:28:51;;;;;;;23.70;14.60;;;14.50;99.90;;;;;;5049538;28;20381;-63
2021/08/28 05:31:17;;;;;;;25.00;14.03;;;14.60;99.90;;;;;;5054823;28;20407;-63
2021/08/28 05:33:42;;;;;;;28.37;14.57;;;14.60;99.90;;;;;;5060299;28;20390;-62
2021/08/28 05:36:08;;;;;;;22.40;13.98;;;14.70;99.90;;;;;;5061511;28;20391;-63
2021/08/28 05:38:34;;;;;;;24.60;14.77;;;14.70;99.90;;;;;;5063744;28;20973;-64
2021/08/28 05:41:00;;;;;;;23.67;14.50;;;14.80;99.90;;;;;;5056377;28;20416;-64
2021/08/28 05:43:26;;;;;;;24.63;14.63;;;14.90;99.90;;;;;;5058556;28;20407;-63
2021/08/28 05:45:51;;;;;;;23.42;14.35;;;15.00;99.90;;;;;;5062908;28;20397;-63
2021/08/28 05:48:17;;;;;;;23.83;14.73;;;15.00;99.90;;;;;;5061114;28;20384;-63
2021/08/28 05:50:43;;;;;;;23.30;14.45;;;15.00;99.90;;;;;;5060051;28;20577;-63
2021/08/28 05:53:08;;;;;;;24.77;13.60;;;15.10;99.90;;;;;;5069162;28;20383;-62
2021/08/28 05:55:34;;;;;;;26.07;15.37;;;15.10;99.90;;;;;;5069458;28;20415;-63
2021/08/28 05:57:59;;;;;;;23.65;13.80;;;15.20;99.90;;;;;;5068520;28;20457;-63
2021/08/28 06:00:25;;;;;;;22.30;13.95;;;15.30;99.90;;;;;;5066562;28;22298;-63
2021/08/28 06:02:51;;;;;;;20.03;13.00;;;15.40;99.90;;;;;;5057783;28;20437;-63
2021/08/28 06:05:16;;;;;;;21.97;12.40;;;15.40;99.90;;;;;;5068935;28;20471;-63
2021/08/28 06:07:42;;;;;;;18.77;12.82;;;15.30;99.90;;;;;;5059067;28;20393;-60
2021/08/28 06:10:08;;;;;;;21.47;13.33;;;15.50;99.90;;;;;;5057849;28;20506;-63
2021/08/28 06:12:36;;;;;;;19.83;12.27;;;15.80;99.90;;;;;;5067627;28;20402;-62
2021/08/28 06:15:05;;;;;;;19.20;12.40;;;15.80;99.90;;;;;;5054836;28;20417;-61
2021/08/28 06:17:31;;;;;;;18.50;11.50;;;15.90;99.90;;;;;;5049322;28;20421;-62
2021/08/28 06:19:57;;;;;;;20.07;12.73;;;15.80;99.90;;;;;;5049629;28;20409;-63
2021/08/28 06:22:23;;;;;;;19.90;11.95;;;15.70;99.90;;;;;;5054325;28;20477;-63
2021/08/28 06:24:48;;;;;;;19.55;12.23;;;15.70;99.90;;;;;;5050555;28;20396;-63
2021/08/28 06:27:14;;;;;;;21.37;12.80;;;15.40;99.90;;;;;;5050958;28;20387;-62
2021/08/28 06:29:40;;;;;;;21.25;12.52;;;15.20;99.90;;;;;;5063441;28;20486;-58
2021/08/28 06:32:06;;;;;;;22.60;13.60;;;15.30;99.90;;;;;;5059191;28;20751;-63
2021/08/28 06:34:31;;;;;;;21.13;12.57;;;15.30;99.90;;;;;;5070186;28;20394;-61
2021/08/28 06:36:57;;;;;;;25.17;13.83;;;15.50;99.90;;;;;;5063282;28;20394;-64
2021/08/28 06:39:23;;;;;;;23.03;13.80;;;15.50;99.90;;;;;;5056161;28;20433;-62
2021/08/28 06:41:48;;;;;;;24.02;15.30;;;15.70;99.90;;;;;;5064124;28;20875;-62
2021/08/28 06:44:16;;;;;;;21.45;14.13;;;15.60;99.90;;;;;;5059187;28;20404;-62
2021/08/28 06:46:41;;;;;;;21.70;13.85;;;15.60;99.90;;;;;;5063300;28;20435;-59
2021/08/28 06:49:08;;;;;;;23.23;13.52;;;15.30;99.90;;;;;;5066936;28;20422;-62
2021/08/28 06:51:33;;;;;;;21.55;12.98;;;15.80;99.90;;;;;;5066407;28;20409;-62
2021/08/28 06:53:59;;;;;;;21.17;13.20;;;15.80;99.90;;;;;;5067673;28;20394;-62
2021/08/28 06:56:25;;;;;;;20.37;12.20;;;16.00;99.90;;;;;;5062492;28;20421;-63
2021/08/28 06:58:50;;;;;;;19.45;12.95;;;16.40;99.90;;;;;;5066057;28;20413;-62
2021/08/28 07:01:16;;;;;;;18.13;10.80;;;17.40;99.90;;;;;;5055468;28;20397;-63
2021/08/28 07:03:42;;;;;;;16.23;10.80;;;18.70;99.90;;;;;;5054755;28;20405;-59
2021/08/28 07:06:07;;;;;;;16.13;9.90;;;20.30;99.90;;;;;;5068076;28;20447;-61
2021/08/28 07:08:33;;;;;;;16.13;10.02;;;20.60;99.90;;;;;;5068385;28;20784;-63
2021/08/28 07:10:59;;;;;;;14.82;10.23;;;20.40;99.90;;;;;;5055412;28;20526;-62
2021/08/28 07:13:26;;;;;;;16.00;9.50;;;20.30;99.90;;;;;;5048299;28;20580;-60
2021/08/28 07:15:52;;;;;;;15.40;10.15;;;20.00;99.90;;;;;;5049738;28;20431;-62
2021/08/28 07:18:17;;;;;;;14.95;10.15;;;19.10;99.90;;;;;;5059753;28;20415;-64
2021/08/28 07:20:43;;;;;;;15.60;10.13;;;18.10;99.90;;;;;;5054772;28;20409;-59
2021/08/28 07:23:10;;;;;;;13.23;8.27;;;17.70;99.90;;;;;;5059884;28;20442;-62
2021/08/28 07:25:39;;;;;;;13.85;9.35;;;17.90;99.90;;;;;;5060108;28;20401;-61
2021/08/28 07:28:10;;;;;;;13.07;9.00;;;18.30;99.90;;;;;;5058346;28;20405;-64
2021/08/28 07:30:36;;;;;;;13.50;8.95;;;18.50;99.90;;;;;;5055156;28;20430;-63
2021/08/28 07:33:02;;;;;;;14.35;9.20;;;18.60;99.90;;;;;;5053696;28;20394;-62
2021/08/28 07:35:28;;;;;;;14.45;8.00;;;19.10;99.90;;;;;;5083209;28;20408;-61
2021/08/28 07:37:54;;;;;;;11.95;8.02;;;19.10;99.90;;;;;;5060375;28;20438;-61
2021/08/28 07:40:23;;;;;;;11.55;7.40;;;18.50;99.90;;;;;;5055006;28;20403;-63
2021/08/28 07:42:55;;;;;;;11.88;6.90;;;18.30;99.90;;;;;;5073476;28;20409;-62
2021/08/28 07:45:22;;;;;;;11.02;6.68;;;18.10;99.90;;;;;;5058435;28;20449;-62
2021/08/28 07:47:47;;;;;;;12.07;7.07;;;17.90;99.90;;;;;;5068098;28;20430;-62
2021/08/28 07:50:13;;;;;;;11.32;6.30;;;17.70;99.90;;;;;;5056764;28;20401;-62
2021/08/28 07:52:43;;;;;;;12.30;6.60;;;18.10;99.90;;;;;;5065498;28;20410;-63
2021/08/28 07:55:10;;;;;;;9.38;5.97;;;19.50;99.90;;;;;;5054897;28;20385;-62
2021/08/28 07:57:36;;;;;;;8.70;5.00;;;21.60;99.90;;;;;;5059380;28;20437;-61
2021/08/28 08:00:04;;;;;;;11.10;6.00;;;22.00;99.90;;;;;;5065584;28;20390;-61
2021/08/28 08:02:29;;;;;;;10.57;6.50;;;22.50;99.90;;;;;;5052484;28;20403;-62
2021/08/28 08:04:55;;;;;;;9.43;4.85;;;22.10;99.90;;;;;;5060635;28;20437;-62
2021/08/28 08:07:21;;;;;;;8.87;4.50;;;21.40;99.90;;;;;;5058799;28;20953;-63
2021/08/28 08:09:47;;;;;;;9.37;3.90;;;20.90;99.90;;;;;;5065331;28;20391;-62
2021/08/28 08:12:13;;;;;;;7.10;3.10;;;19.90;99.90;;;;;;5057927;28;20476;-62
2021/08/28 08:14:39;;;;;;;6.75;3.33;;;19.10;99.90;;;;;;5057656;28;20393;-62
2021/08/28 08:17:04;;;;;;;5.80;2.73;;;19.00;99.90;;;;;;5058437;28;20998;-62
2021/08/28 08:19:30;;;;;;;6.17;3.00;;;19.00;99.90;;;;;;5060015;28;20403;-62
2021/08/28 08:21:56;;;;;;;6.68;3.25;;;19.00;99.90;;;;;;5055480;28;20824;-62
2021/08/28 08:24:21;;;;;;;7.20;3.30;;;19.00;99.90;;;;;;5052443;28;20527;-62
2021/08/28 08:26:47;;;;;;;14.70;3.80;;;19.10;99.90;;;;;;5057614;28;20475;-61
2021/08/28 08:29:13;;;;;;;7.40;3.43;;;19.10;99.90;;;;;;5061142;28;20419;-61
2021/08/28 08:31:38;;;;;;;6.97;3.67;;;19.00;99.90;;;;;;5058568;28;20874;-62
2021/08/28 08:34:04;;;;;;;8.63;3.40;;;19.10;99.90;;;;;;5050420;28;20395;-62
2021/08/28 08:36:30;;;;;;;6.60;3.22;;;18.80;99.90;;;;;;5069094;28;20506;-61
2021/08/28 08:38:55;;;;;;;7.63;3.20;;;17.30;99.90;;;;;;5061222;28;20795;-62
2021/08/28 08:41:24;;;;;;;7.53;3.50;;;18.30;99.90;;;;;;5076023;28;20406;-61
2021/08/28 08:43:51;;;;;;;7.50;3.60;;;18.10;99.90;;;;;;5055129;28;20416;-61
2021/08/28 08:46:21;;;;;;;8.43;4.57;;;18.20;99.90;;;;;;5064275;28;20751;-61
2021/08/28 08:48:48;;;;;;;6.30;2.90;;;18.20;99.90;;;;;;5069115;28;20408;-61
2021/08/28 08:51:17;;;;;;;8.75;3.28;;;18.20;99.90;;;;;;5070446;28;20809;-62
2021/08/28 08:53:44;;;;;;;6.10;3.03;;;18.20;99.90;;;;;;5068796;28;20383;-59
2021/08/28 08:56:10;;;;;;;8.68;3.67;;;18.10;99.90;;;;;;5069937;28;20907;-61
2021/08/28 08:58:36;;;;;;;10.23;3.42;;;18.00;99.90;;;;;;5070100;28;20426;-60
2021/08/28 09:01:03;;;;;;;7.10;3.40;;;18.00;99.90;;;;;;5069523;28;21198;-61
2021/08/28 09:03:29;;;;;;;7.78;3.28;;;17.80;99.90;;;;;;5070272;28;20500;-61
2021/08/28 09:05:55;;;;;;;8.70;3.40;;;17.90;99.90;;;;;;5069536;28;20434;-61
2021/08/28 09:08:21;;;;;;;7.28;3.60;;;17.80;99.90;;;;;;5071943;28;20383;-62
2021/08/28 09:10:46;;;;;;;7.30;3.50;;;18.00;99.90;;;;;;5069390;28;20376;-60
2021/08/28 09:13:22;;;;;;;7.60;3.70;;;17.60;99.90;;;;;;5085096;28;20902;-61
2021/08/28 09:15:50;;;;;;;8.40;4.50;;;17.50;99.90;;;;;;5073701;28;20395;-62
2021/08/28 09:18:16;;;;;;;6.70;3.90;;;17.40;99.90;;;;;;5071255;28;20402;-62
2021/08/28 09:20:43;;;;;;;7.83;4.40;;;17.70;99.90;;;;;;5069590;28;20471;-61
2021/08/28 09:23:15;;;;;;;7.05;4.47;;;17.60;99.90;;;;;;5069647;28;20387;-62
2021/08/28 09:25:43;;;;;;;6.68;3.55;;;17.60;99.90;;;;;;5069320;28;20856;-62
2021/08/28 09:28:09;;;;;;;6.75;3.97;;;17.60;99.90;;;;;;5069276;28;20396;-62
2021/08/28 09:30:38;;;;;;;7.10;3.72;;;17.70;99.90;;;;;;5069636;28;20813;-62
2021/08/28 09:33:07;;;;;;;8.90;4.50;;;17.60;99.90;;;;;;5068212;28;20416;-61
2021/08/28 09:35:39;;;;;;;6.63;4.10;;;17.40;99.90;;;;;;5069785;28;20376;-62
2021/08/28 09:38:07;;;;;;;6.67;4.00;;;17.50;99.90;;;;;;5068799;28;20391;-61
2021/08/28 09:40:42;;;;;;;7.28;4.00;;;17.20;99.90;;;;;;5069159;28;20444;-62
2021/08/28 09:43:15;;;;;;;7.93;4.10;;;17.10;99.90;;;;;;5067227;28;20765;-62
2021/08/28 09:45:41;;;;;;;6.10;3.40;;;17.00;99.90;;;;;;5068214;28;20507;-62
2021/08/28 09:48:10;;;;;;;5.93;3.33;;;17.10;99.90;;;;;;5068316;28;20391;-61
2021/08/28 09:50:42;;;;;;;6.80;3.80;;;16.80;99.90;;;;;;5069430;28;20455;-62
2021/08/28 09:53:11;;;;;;;7.00;3.80;;;16.80;99.90;;;;;;5068459;28;20380;-62
2021/08/28 09:55:38;;;;;;;6.00;3.38;;;16.80;99.90;;;;;;5069234;28;20392;-62
2021/08/28 09:58:05;;;;;;;7.70;3.50;;;16.80;99.90;;;;;;5068354;28;20931;-62
2021/08/28 10:00:33;;;;;;;6.65;3.63;;;16.60;99.90;;;;;;5069354;28;20384;-62
2021/08/28 10:03:03;;;;;;;5.68;2.90;;;16.60;99.90;;;;;;5067974;28;20854;-62
2021/08/28 10:05:33;;;;;;;6.30;3.10;;;16.80;99.90;;;;;;5069456;28;20532;-61
2021/08/28 10:08:01;;;;;;;6.45;3.05;;;16.90;99.90;;;;;;5068549;28;20379;-62
2021/08/28 10:10:29;;;;;;;5.72;2.90;;;16.90;99.90;;;;;;5069094;28;20376;-62
2021/08/28 10:12:56;;;;;;;6.38;3.40;;;16.80;99.90;;;;;;5068282;28;20496;-63
2021/08/28 10:15:22;;;;;;;6.45;2.85;;;16.70;99.90;;;;;;5068924;28;20383;-62
2021/08/28 10:17:49;;;;;;;5.57;3.10;;;16.60;99.90;;;;;;5068125;28;20440;-59
2021/08/28 10:20:17;;;;;;;6.10;3.78;;;16.60;99.90;;;;;;5069198;28;20865;-61
2021/08/28 10:22:43;;;;;;;5.90;3.42;;;16.80;99.90;;;;;;5068940;28;20475;-62
2021/08/28 10:25:12;;;;;;;6.50;3.20;;;17.00;99.90;;;;;;5067797;28;20376;-64
2021/08/28 10:27:40;;;;;;;5.90;3.00;;;16.90;99.90;;;;;;5068888;28;20388;-61
2021/08/28 10:30:08;;;;;;;5.80;2.60;;;16.80;99.90;;;;;;5068129;28;20505;-62
2021/08/28 10:32:34;;;;;;;7.25;2.50;;;16.80;99.90;;;;;;5068918;28;20386;-62
2021/08/28 10:35:00;;;;;;;5.72;2.75;;;17.20;99.90;;;;;;5068121;28;20384;-62
2021/08/28 10:37:26;;;;;;;6.20;2.60;;;18.00;99.90;;;;;;5068748;28;20388;-61
2021/08/28 10:39:53;;;;;;;6.70;2.63;;;19.00;99.90;;;;;;5068318;28;20403;-63
2021/08/28 10:42:21;;;;;;;4.80;2.35;;;19.50;99.90;;;;;;5068657;28;20395;-62
2021/08/28 10:44:51;;;;;;;9.40;2.13;;;19.60;99.90;;;;;;5068777;28;20376;-60
2021/08/28 10:47:23;;;;;;;5.40;2.42;;;19.70;99.90;;;;;;5068997;28;20383;-62
2021/08/28 10:49:52;;;;;;;5.10;2.17;;;19.20;99.90;;;;;;5068310;28;20380;-60
2021/08/28 10:52:26;;;;;;;5.30;2.10;;;18.60;99.90;;;;;;5068825;28;20372;-62
2021/08/28 10:55:04;;;;;;;5.10;2.00;;;18.50;99.90;;;;;;5068107;28;20379;-62
2021/08/28 10:57:29;;;;;;;4.40;2.00;;;18.90;99.90;;;;;;5068863;28;20372;-62
2021/08/28 11:00:10;;;;;;;5.17;1.90;;;19.50;99.90;;;;;;5067818;28;20407;-62
2021/08/28 11:03:23;;;;;;;5.30;2.10;;;20.40;99.90;;;;;;5068652;28;20399;-62
2021/08/28 11:06:15;;;;;;;4.60;1.45;;;21.00;99.90;;;;;;5025313;28;20737;-60
2021/08/28 11:08:51;;;;;;;7.40;1.90;;;21.30;99.90;;;;;;5060295;28;20450;-62
2021/08/28 11:11:38;;;;;;;6.80;1.90;;;22.10;99.90;;;;;;5068346;28;20390;-62
2021/08/28 11:14:07;;;;;;;4.30;1.47;;;21.00;99.90;;;;;;5066528;28;20475;-63
2021/08/28 11:16:44;;;;;;;4.37;1.60;;;21.10;99.90;;;;;;5068368;28;20408;-63
2021/08/28 11:19:23;;;;;;;5.93;1.70;;;21.10;99.90;;;;;;5066974;28;20407;-62
2021/08/28 11:21:50;;;;;;;4.70;1.15;;;20.80;99.90;;;;;;5067863;28;20380;-60
2021/08/28 11:24:21;;;;;;;4.50;1.50;;;21.20;99.90;;;;;;5067839;28;20376;-63
2021/08/28 11:26:56;;;;;;;4.10;1.30;;;21.50;99.90;;;;;;5066962;28;20892;-60
2021/08/28 11:29:25;;;;;;;4.82;1.42;;;21.90;99.90;;;;;;5068213;28;20384;-61
2021/08/28 11:32:10;;;;;;;4.17;1.10;;;22.20;99.90;;;;;;5067477;28;20376;-60
2021/08/28 11:34:51;;;;;;;4.70;1.30;;;21.50;99.90;;;;;;5066273;28;20398;-62
2021/08/28 11:37:28;;;;;;;4.70;1.50;;;21.00;99.90;;;;;;5061879;28;20469;-63
2021/08/28 11:40:23;;;;;;;5.07;1.65;;;20.60;99.90;;;;;;5055413;28;20399;-63
2021/08/28 11:42:49;;;;;;;4.20;1.30;;;20.60;99.90;;;;;;5061665;28;21015;-60
2021/08/28 11:45:17;;;;;;;4.53;1.40;;;20.60;99.90;;;;;;5052268;28;20404;-62
2021/08/28 11:47:43;;;;;;;4.20;1.30;;;20.20;99.90;;;;;;5056581;28;20396;-63
2021/08/28 11:50:09;;;;;;;5.40;1.30;;;20.00;99.90;;;;;;5069476;28;20388;-62
2021/08/28 11:52:36;;;;;;;4.40;1.20;;;20.10;99.90;;;;;;5071931;28;20850;-62
2021/08/28 11:55:10;;;;;;;5.78;0.90;;;20.30;99.90;;;;;;5070724;28;20391;-62
2021/08/28 11:57:36;;;;;;;3.90;0.90;;;20.60;99.90;;;;;;5071368;28;20474;-63
2021/08/28 12:00:07;;;;;;;3.80;0.90;;;20.70;99.90;;;;;;5056700;28;20480;-62
2021/08/28 12:02:33;;;;;;;5.50;1.00;;;20.80;99.90;;;;;;5066777;28;20391;-61
2021/08/28 12:05:11;;;;;;;4.50;0.80;;;20.80;99.90;;;;;;5065025;28;20399;-62
2021/08/28 12:07:38;;;;;;;4.55;1.10;;;20.60;99.90;;;;;;5071375;28;20438;-63
2021/08/28 12:10:05;;;;;;;4.20;1.30;;;20.60;99.90;;;;;;5070227;28;20371;-63
2021/08/28 12:12:30;;;;;;;4.15;1.20;;;20.80;99.90;;;;;;5064196;28;20827;-63
2021/08/28 12:15:02;;;;;;;4.20;1.10;;;21.00;99.90;;;;;;5058387;28;20484;-62
2021/08/28 12:17:30;;;;;;;4.28;1.08;;;20.80;99.90;;;;;;5070405;28;20730;-63
2021/08/28 12:20:01;;;;;;;4.50;1.40;;;20.80;99.90;;;;;;5081851;28;20395;-63
2021/08/28 12:22:27;;;;;;;4.10;1.20;;;20.80;99.90;;;;;;5070586;28;20876;-62
2021/08/28 12:24:53;;;;;;;4.30;1.30;;;20.80;99.90;;;;;;5067507;28;20485;-64
2021/08/28 12:27:19;;;;;;;4.90;1.30;;;20.80;99.90;;;;;;5071790;28;20370;-62
2021/08/28 12:29:52;;;;;;;4.10;1.00;;;21.10;99.90;;;;;;5078501;28;20380;-61
2021/08/28 12:32:23;;;;;;;4.10;1.20;;;21.30;99.90;;;;;;5062613;28;20984;-62
2021/08/28 12:34:51;;;;;;;6.30;2.50;;;21.40;99.90;;;;;;5060080;28;20399;-59
2021/08/28 12:37:19;;;;;;;4.80;1.40;;;21.50;99.90;;;;;;5065775;28;20392;-62
2021/08/28 12:39:54;;;;;;;4.60;1.30;;;21.20;99.90;;;;;;5077117;28;20920;-61
2021/08/28 12:42:22;;;;;;;5.40;1.50;;;20.80;99.90;;;;;;5081361;28;20408;-62